createdAt,value
2019-04-28T00:00:31.460Z,10.40
2019-04-28T00:03:00.849Z,10.40
2019-04-28T00:05:30.900Z,10.40
2019-04-28T00:08:01.201Z,10.40
2019-04-28T00:10:32.064Z,10.40
2019-04-28T00:13:01.277Z,10.40
2019-04-28T00:15:30.950Z,10.30
2019-04-28T00:18:01.588Z,10.20
2019-04-28T00:20:51.035Z,10.10
2019-04-28T00:23:22.378Z,10.00
2019-04-28T00:25:58.869Z,9.90
2019-04-28T00:28:27.944Z,9.80
2019-04-28T00:30:56.968Z,9.80
2019-04-28T00:33:26.008Z,9.80
2019-04-28T00:35:55.058Z,9.80
2019-04-28T00:38:24.082Z,9.80
2019-04-28T00:40:53.119Z,9.80
2019-04-28T00:43:22.213Z,9.80
2019-04-28T00:45:51.323Z,9.80
2019-04-28T00:48:20.916Z,9.90
2019-04-28T00:50:51.871Z,9.90
2019-04-28T00:53:23.012Z,9.90
2019-04-28T00:55:54.053Z,10.00
2019-04-28T00:58:22.498Z,10.00
2019-04-28T01:00:53.187Z,10.00
2019-04-28T01:03:23.961Z,10.00
2019-04-28T01:05:53.139Z,10.00
2019-04-28T01:08:22.251Z,10.00
2019-04-28T01:10:51.357Z,10.00
2019-04-28T01:13:21.473Z,10.00
2019-04-28T01:15:59.386Z,10.00
2019-04-28T01:18:30.359Z,10.00
2019-04-28T01:20:59.767Z,10.00
2019-04-28T01:23:30.281Z,9.90
2019-04-28T01:26:00.047Z,9.90
2019-04-28T01:28:29.776Z,9.90
2019-04-28T01:31:06.602Z,9.90
2019-04-28T01:33:37.293Z,9.90
2019-04-28T01:36:06.323Z,9.90
2019-04-28T01:38:35.351Z,9.90
2019-04-28T01:41:04.477Z,9.90
2019-04-28T01:43:33.512Z,9.90
2019-04-28T01:46:02.557Z,9.80
2019-04-28T01:48:31.669Z,9.80
2019-04-28T01:51:00.793Z,9.90
2019-04-28T01:53:30.801Z,9.90
2019-04-28T01:56:00.039Z,9.90
2019-04-28T01:58:29.718Z,9.80
2019-04-28T02:00:59.561Z,9.90
2019-04-28T02:03:30.584Z,9.80
2019-04-28T02:06:00.184Z,9.80
2019-04-28T02:08:30.196Z,9.80
2019-04-28T02:11:00.146Z,9.80
2019-04-28T02:13:29.817Z,9.90
2019-04-28T02:16:00.009Z,9.80
2019-04-28T02:18:29.932Z,9.80
2019-04-28T02:21:00.810Z,9.80
2019-04-28T02:23:34.432Z,9.80
2019-04-28T02:26:03.532Z,9.80
2019-04-28T02:28:32.568Z,9.80
2019-04-28T02:31:02.413Z,9.80
2019-04-28T02:33:31.608Z,9.80
2019-04-28T02:36:01.417Z,9.80
2019-04-28T02:38:33.969Z,9.80
2019-04-28T02:41:01.506Z,9.70
2019-04-28T02:43:30.893Z,9.70
2019-04-28T02:46:00.772Z,9.70
2019-04-28T02:48:30.980Z,9.60
2019-04-28T02:51:01.956Z,9.60
2019-04-28T02:53:33.726Z,9.60
2019-04-28T02:56:03.154Z,9.60
2019-04-28T02:58:32.209Z,9.60
2019-04-28T03:01:11.242Z,9.60
2019-04-28T03:03:31.978Z,9.60
2019-04-28T03:06:01.614Z,9.50
2019-04-28T03:08:30.880Z,9.50
2019-04-28T03:11:00.886Z,9.50
2019-04-28T03:13:31.140Z,9.40
2019-04-28T03:16:01.627Z,9.40
2019-04-28T03:18:31.887Z,9.40
2019-04-28T03:21:03.876Z,9.40
2019-04-28T03:23:32.051Z,9.30
2019-04-28T03:26:02.725Z,9.30
2019-04-28T03:28:33.895Z,9.20
2019-04-28T03:31:35.206Z,9.20
2019-04-28T03:33:41.670Z,9.20
2019-04-28T03:36:08.418Z,9.20
2019-04-28T03:38:37.072Z,9.20
2019-04-28T03:41:06.099Z,9.30
2019-04-28T03:43:35.126Z,9.40
2019-04-28T03:46:10.519Z,9.40
2019-04-28T03:48:40.866Z,9.40
2019-04-28T03:51:10.811Z,9.40
2019-04-28T03:53:41.208Z,9.50
2019-04-28T03:56:11.421Z,9.50
2019-04-28T03:58:40.842Z,9.50
2019-04-28T04:01:10.788Z,9.50
2019-04-28T04:03:41.767Z,9.50
2019-04-28T04:06:10.927Z,9.50
2019-04-28T04:08:40.853Z,9.60
2019-04-28T04:11:11.818Z,9.60
2019-04-28T04:13:42.482Z,9.60
2019-04-28T04:16:20.682Z,9.70
2019-04-28T04:18:53.817Z,9.70
2019-04-28T04:21:22.174Z,9.70
2019-04-28T04:23:51.261Z,9.70
2019-04-28T04:26:21.276Z,9.70
2019-04-28T04:28:51.446Z,9.70
2019-04-28T04:31:20.850Z,9.70
2019-04-28T04:33:50.682Z,9.70
2019-04-28T04:36:21.123Z,9.70
2019-04-28T04:38:51.251Z,9.80
2019-04-28T04:41:22.402Z,9.70
2019-04-28T04:43:51.621Z,9.70
2019-04-28T04:46:22.767Z,9.70
2019-04-28T04:48:52.184Z,9.70
2019-04-28T04:51:21.788Z,9.70
2019-04-28T04:53:51.594Z,9.70
2019-04-28T04:56:21.519Z,9.70
2019-04-28T04:58:50.950Z,9.80
2019-04-28T05:01:40.427Z,9.80
2019-04-28T05:04:13.267Z,9.80
2019-04-28T05:06:42.602Z,9.80
2019-04-28T05:09:11.888Z,9.80
2019-04-28T05:11:40.958Z,9.80
2019-04-28T05:14:12.095Z,9.80
2019-04-28T05:16:40.839Z,9.80
2019-04-28T05:19:10.372Z,9.90
2019-04-28T05:21:40.301Z,9.90
2019-04-28T05:24:30.338Z,9.90
2019-04-28T05:26:59.712Z,9.90
2019-04-28T05:29:30.439Z,9.90
2019-04-28T05:32:03.142Z,9.90
2019-04-28T05:34:30.319Z,9.80
2019-04-28T05:37:00.676Z,9.80
2019-04-28T05:39:30.118Z,9.90
2019-04-28T05:42:00.882Z,9.80
2019-04-28T05:44:31.815Z,9.80
2019-04-28T05:47:00.715Z,9.80
2019-04-28T05:49:49.800Z,9.80
2019-04-28T05:52:40.203Z,9.90
2019-04-28T05:55:10.906Z,10.00
2019-04-28T05:57:47.141Z,10.10
2019-04-28T06:00:19.755Z,10.30
2019-04-28T06:02:56.455Z,10.30
2019-04-28T06:05:21.404Z,10.40
2019-04-28T06:07:52.086Z,10.40
2019-04-28T06:10:21.118Z,10.50
2019-04-28T06:12:50.154Z,10.50
2019-04-28T06:15:20.434Z,10.60
2019-04-28T06:17:49.901Z,10.60
2019-04-28T06:20:20.112Z,10.70
2019-04-28T06:22:49.425Z,10.80
2019-04-28T06:25:18.639Z,10.90
2019-04-28T06:27:47.664Z,10.90
2019-04-28T06:30:16.858Z,11.00
2019-04-28T06:32:45.889Z,11.00
2019-04-28T06:35:14.927Z,11.00
2019-04-28T06:37:43.967Z,10.90
2019-04-28T06:40:13.450Z,11.00
2019-04-28T06:42:42.483Z,11.00
2019-04-28T06:45:11.683Z,10.90
2019-04-28T06:47:40.723Z,10.80
2019-04-28T06:50:10.308Z,10.80
2019-04-28T06:52:39.401Z,11.10
2019-04-28T06:55:08.585Z,11.30
2019-04-28T06:57:37.618Z,11.50
2019-04-28T07:00:08.471Z,11.40
2019-04-28T07:02:37.505Z,11.30
2019-04-28T07:05:07.297Z,11.40
2019-04-28T07:07:36.335Z,11.50
2019-04-28T07:10:08.663Z,11.50
2019-04-28T07:12:37.713Z,11.60
2019-04-28T07:15:07.022Z,11.70
2019-04-28T07:17:36.039Z,11.80
2019-04-28T07:20:24.029Z,11.80
2019-04-28T07:22:53.123Z,11.90
2019-04-28T07:25:22.234Z,11.90
2019-04-28T07:27:51.274Z,11.90
2019-04-28T07:30:20.318Z,11.70
2019-04-28T07:32:49.396Z,11.60
2019-04-28T07:35:18.581Z,11.30
2019-04-28T07:37:47.613Z,11.10
2019-04-28T07:40:16.638Z,11.10
2019-04-28T07:42:45.705Z,11.00
2019-04-28T07:45:15.016Z,11.00
2019-04-28T07:47:44.066Z,11.00
2019-04-28T07:50:13.638Z,11.00
2019-04-28T07:52:50.552Z,11.10
2019-04-28T07:55:19.575Z,11.10
2019-04-28T07:57:48.700Z,11.20
2019-04-28T08:00:28.691Z,11.20
2019-04-28T08:02:57.741Z,11.10
2019-04-28T08:05:26.770Z,10.90
2019-04-28T08:07:55.806Z,10.90
2019-04-28T08:10:24.846Z,10.80
2019-04-28T08:12:53.906Z,10.70
2019-04-28T08:15:22.928Z,10.70
2019-04-28T08:17:51.993Z,10.70
2019-04-28T08:20:21.026Z,10.60
2019-04-28T08:22:50.081Z,10.70
2019-04-28T08:25:19.106Z,10.60
2019-04-28T08:27:48.156Z,10.60
2019-04-28T08:30:17.348Z,10.50
2019-04-28T08:32:50.468Z,10.50
2019-04-28T08:35:19.502Z,10.70
2019-04-28T08:37:48.549Z,10.80
2019-04-28T08:40:17.577Z,10.90
2019-04-28T08:42:46.630Z,11.10
2019-04-28T08:45:16.180Z,11.40
2019-04-28T08:47:45.239Z,11.60
2019-04-28T08:50:14.335Z,11.90
2019-04-28T08:52:43.444Z,12.20
2019-04-28T08:55:12.917Z,12.60
2019-04-28T08:57:41.973Z,13.00
2019-04-28T09:00:12.502Z,13.20
2019-04-28T09:02:41.547Z,13.50
2019-04-28T09:05:10.652Z,13.60
2019-04-28T09:07:39.754Z,13.70
2019-04-28T09:10:09.517Z,13.60
2019-04-28T09:12:38.572Z,13.60
2019-04-28T09:15:08.139Z,13.60
2019-04-28T09:17:37.167Z,13.80
2019-04-28T09:20:09.650Z,13.70
2019-04-28T09:22:38.683Z,13.60
2019-04-28T09:25:07.973Z,13.40
2019-04-28T09:27:37.073Z,13.40
2019-04-28T09:30:06.851Z,13.50
2019-04-28T09:32:36.027Z,13.70
2019-04-28T09:35:06.883Z,13.90
2019-04-28T09:37:36.099Z,14.00
2019-04-28T09:40:10.448Z,14.10
2019-04-28T09:42:43.926Z,14.20
2019-04-28T09:45:20.770Z,13.90
2019-04-28T09:47:49.804Z,13.60
2019-04-28T09:50:18.942Z,13.50
2019-04-28T09:52:48.798Z,13.30
2019-04-28T09:55:18.118Z,13.20
2019-04-28T09:57:47.148Z,13.00
2019-04-28T10:00:16.374Z,12.90
2019-04-28T10:02:45.426Z,12.80
2019-04-28T10:05:14.761Z,12.70
2019-04-28T10:07:43.814Z,12.50
2019-04-28T10:10:13.401Z,12.20
2019-04-28T10:12:42.444Z,12.20
2019-04-28T10:15:11.880Z,12.10
2019-04-28T10:17:40.966Z,12.10
2019-04-28T10:20:10.603Z,12.10
2019-04-28T10:22:39.636Z,12.40
2019-04-28T10:25:09.325Z,12.60
2019-04-28T10:27:38.449Z,12.80
2019-04-28T10:30:11.247Z,12.80
2019-04-28T10:32:40.356Z,12.90
2019-04-28T10:35:09.796Z,13.30
2019-04-28T10:37:38.889Z,13.80
2019-04-28T10:40:10.125Z,14.10
2019-04-28T10:42:39.192Z,14.20
2019-04-28T10:45:10.006Z,14.50
2019-04-28T10:47:39.059Z,14.40
2019-04-28T10:50:08.733Z,14.10
2019-04-28T10:52:37.768Z,13.80
2019-04-28T10:55:07.031Z,13.70
2019-04-28T10:57:36.096Z,13.70
2019-04-28T11:00:09.381Z,13.90
2019-04-28T11:02:40.093Z,14.20
2019-04-28T11:05:10.953Z,14.40
2019-04-28T11:07:40.057Z,14.50
2019-04-28T11:10:10.989Z,14.60
2019-04-28T11:12:40.190Z,14.60
2019-04-28T11:15:13.806Z,14.40
2019-04-28T11:17:42.850Z,14.40
2019-04-28T11:20:11.966Z,14.50
2019-04-28T11:22:41.097Z,14.70
2019-04-28T11:25:10.392Z,14.80
2019-04-28T11:27:39.484Z,14.70
2019-04-28T11:30:09.026Z,14.60
2019-04-28T11:32:39.718Z,14.30
2019-04-28T11:35:20.877Z,14.30
2019-04-28T11:37:41.527Z,14.30
2019-04-28T11:40:10.992Z,14.60
2019-04-28T11:42:40.128Z,14.80
2019-04-28T11:45:09.566Z,14.60
2019-04-28T11:47:38.616Z,14.50
2019-04-28T11:50:08.709Z,14.30
2019-04-28T11:52:37.732Z,14.00
2019-04-28T11:55:07.398Z,13.80
2019-04-28T11:57:36.527Z,13.80
2019-04-28T12:00:26.696Z,13.80
2019-04-28T12:02:55.909Z,13.70
2019-04-28T12:05:34.264Z,13.60
2019-04-28T12:07:57.344Z,13.50
2019-04-28T12:10:30.702Z,13.50
2019-04-28T12:13:01.470Z,13.70
2019-04-28T12:15:34.895Z,14.10
2019-04-28T12:18:21.210Z,14.70
2019-04-28T12:20:50.327Z,15.10
2019-04-28T12:23:19.377Z,15.40
2019-04-28T12:25:48.415Z,15.40
2019-04-28T12:28:17.456Z,15.30
2019-04-28T12:30:46.495Z,15.20
2019-04-28T12:33:15.549Z,15.00
2019-04-28T12:35:48.159Z,15.00
2019-04-28T12:38:15.345Z,15.10
2019-04-28T12:40:44.381Z,15.40
2019-04-28T12:43:13.427Z,15.70
2019-04-28T12:45:42.479Z,16.20
2019-04-28T12:48:11.515Z,16.50
2019-04-28T12:50:44.907Z,17.00
2019-04-28T12:53:13.967Z,17.40
2019-04-28T12:55:43.008Z,17.80
2019-04-28T12:58:12.035Z,18.00
2019-04-28T13:00:54.421Z,18.10
2019-04-28T13:03:31.226Z,18.00
2019-04-28T13:06:05.627Z,18.30
2019-04-28T13:08:32.677Z,18.40
2019-04-28T13:11:01.742Z,18.40
2019-04-28T13:13:30.799Z,18.50
2019-04-28T13:15:59.919Z,18.40
2019-04-28T13:18:28.946Z,18.10
2019-04-28T13:20:59.093Z,17.60
2019-04-28T13:23:28.315Z,17.00
2019-04-28T13:25:57.365Z,16.60
2019-04-28T13:28:26.413Z,16.40
2019-04-28T13:30:55.474Z,16.10
2019-04-28T13:33:24.592Z,15.90
2019-04-28T13:35:53.643Z,15.70
2019-04-28T13:38:22.808Z,15.60
2019-04-28T13:40:51.893Z,15.50
2019-04-28T13:43:20.935Z,15.50
2019-04-28T13:45:49.976Z,15.50
2019-04-28T13:48:19.019Z,15.70
2019-04-28T13:50:49.121Z,15.90
2019-04-28T13:53:18.400Z,15.90
2019-04-28T13:55:49.175Z,15.90
2019-04-28T13:58:32.355Z,16.10
2019-04-28T14:01:15.241Z,16.00
2019-04-28T14:03:55.235Z,16.00
2019-04-28T14:06:32.135Z,16.40
2019-04-28T14:09:01.193Z,16.80
2019-04-28T14:11:30.292Z,17.00
2019-04-28T14:13:59.334Z,17.10
2019-04-28T14:16:28.385Z,17.50
2019-04-28T14:18:57.488Z,18.00
2019-04-28T14:21:26.324Z,18.60
2019-04-28T14:23:55.073Z,19.10
2019-04-28T14:26:23.867Z,19.40
2019-04-28T14:28:52.654Z,20.00
2019-04-28T14:31:21.394Z,19.80
2019-04-28T14:33:50.169Z,19.50
2019-04-28T14:36:18.907Z,19.60
2019-04-28T14:38:47.674Z,19.70
2019-04-28T14:41:16.440Z,19.70
2019-04-28T14:43:45.252Z,19.50
2019-04-28T14:46:14.091Z,18.80
2019-04-28T14:48:42.837Z,18.70
2019-04-28T14:51:11.650Z,18.60
2019-04-28T14:53:40.637Z,18.40
2019-04-28T14:56:09.555Z,18.30
2019-04-28T14:58:38.612Z,18.20
2019-04-28T15:01:09.463Z,17.90
2019-04-28T15:03:52.063Z,18.20
2019-04-28T15:06:22.527Z,18.90
2019-04-28T15:08:58.924Z,19.30
2019-04-28T15:11:32.349Z,19.30
2019-04-28T15:14:01.345Z,19.30
2019-04-28T15:16:30.193Z,18.80
2019-04-28T15:18:58.979Z,18.40
2019-04-28T15:21:27.792Z,18.00
2019-04-28T15:23:56.913Z,17.80
2019-04-28T15:26:26.081Z,17.70
2019-04-28T15:28:55.115Z,17.80
2019-04-28T15:31:24.157Z,17.80
2019-04-28T15:33:52.914Z,18.10
2019-04-28T15:36:21.975Z,18.10
2019-04-28T15:38:50.716Z,17.70
2019-04-28T15:41:21.695Z,17.80
2019-04-28T15:43:49.957Z,18.20
2019-04-28T15:46:18.728Z,18.20
2019-04-28T15:48:47.468Z,18.30
2019-04-28T15:51:16.222Z,18.60
2019-04-28T15:53:46.606Z,18.70
2019-04-28T15:56:29.003Z,18.40
2019-04-28T15:58:57.735Z,17.90
2019-04-28T16:01:26.858Z,17.50
2019-04-28T16:03:55.966Z,17.30
2019-04-28T16:06:25.266Z,16.90
2019-04-28T16:08:54.300Z,17.10
2019-04-28T16:11:23.348Z,17.50
2019-04-28T16:13:52.103Z,17.60
2019-04-28T16:16:20.941Z,17.70
2019-04-28T16:18:49.691Z,17.70
2019-04-28T16:21:18.437Z,17.90
2019-04-28T16:23:47.230Z,18.20
2019-04-28T16:26:16.035Z,18.50
2019-04-28T16:28:44.785Z,18.20
2019-04-28T16:31:13.596Z,17.90
2019-04-28T16:33:42.356Z,17.70
2019-04-28T16:36:11.123Z,17.70
2019-04-28T16:38:40.165Z,17.60
2019-04-28T16:41:11.455Z,17.50
2019-04-28T16:43:42.925Z,17.20
2019-04-28T16:46:11.979Z,16.90
2019-04-28T16:48:41.031Z,16.60
2019-04-28T16:51:10.059Z,16.40
2019-04-28T16:53:39.101Z,16.10
2019-04-28T16:56:29.369Z,15.90
2019-04-28T16:59:05.959Z,15.60
2019-04-28T17:01:36.657Z,15.30
2019-04-28T17:04:05.785Z,15.20
2019-04-28T17:06:34.836Z,15.10
2019-04-28T17:09:05.722Z,15.20
2019-04-28T17:11:34.833Z,15.20
2019-04-28T17:14:04.074Z,15.20
2019-04-28T17:16:33.124Z,15.00
2019-04-28T17:19:02.223Z,15.10
2019-04-28T17:21:31.624Z,15.30
2019-04-28T17:24:00.690Z,15.30
2019-04-28T17:26:29.744Z,15.40
2019-04-28T17:28:58.809Z,15.50
2019-04-28T17:31:27.853Z,15.50
2019-04-28T17:33:56.910Z,15.70
2019-04-28T17:36:26.030Z,15.90
2019-04-28T17:38:55.095Z,15.80
2019-04-28T17:41:24.676Z,15.60
2019-04-28T17:43:53.742Z,15.30
2019-04-28T17:46:22.850Z,14.90
2019-04-28T17:48:53.579Z,14.70
2019-04-28T17:51:22.615Z,14.50
2019-04-28T17:53:51.672Z,14.40
2019-04-28T17:56:20.710Z,14.30
2019-04-28T17:58:49.789Z,14.20
2019-04-28T18:01:32.648Z,14.00
2019-04-28T18:04:19.647Z,14.00
2019-04-28T18:07:08.298Z,14.00
2019-04-28T18:09:37.380Z,13.90
2019-04-28T18:12:06.590Z,13.70
2019-04-28T18:14:36.629Z,13.60
2019-04-28T18:17:10.084Z,13.50
2019-04-28T18:19:39.175Z,13.50
2019-04-28T18:22:08.249Z,13.40
2019-04-28T18:24:39.946Z,13.30
2019-04-28T18:27:08.067Z,13.20
2019-04-28T18:29:37.130Z,13.20
2019-04-28T18:32:13.297Z,13.00
2019-04-28T18:34:43.991Z,12.90
2019-04-28T18:37:14.689Z,12.90
2019-04-28T18:40:00.825Z,12.80
2019-04-28T18:42:46.312Z,12.80
2019-04-28T18:45:16.347Z,12.70
2019-04-28T18:47:45.414Z,12.60
2019-04-28T18:50:16.101Z,12.50
2019-04-28T18:52:45.305Z,12.50
2019-04-28T18:55:14.367Z,12.40
2019-04-28T18:57:43.441Z,12.40
2019-04-28T19:00:12.930Z,12.30
2019-04-28T19:02:48.391Z,12.30
2019-04-28T19:05:18.086Z,12.20
2019-04-28T19:07:48.808Z,12.20
2019-04-28T19:10:19.651Z,12.10
2019-04-28T19:13:06.860Z,12.10
2019-04-28T19:15:46.650Z,12.10
2019-04-28T19:18:17.350Z,12.00
2019-04-28T19:20:46.392Z,12.00
2019-04-28T19:23:15.461Z,12.00
2019-04-28T19:25:44.486Z,12.00
2019-04-28T19:28:13.578Z,12.00
2019-04-28T19:30:45.480Z,12.00
2019-04-28T19:33:13.438Z,11.90
2019-04-28T19:35:42.484Z,11.90
2019-04-28T19:38:11.552Z,11.90
2019-04-28T19:40:40.758Z,11.90
2019-04-28T19:43:09.820Z,11.80
2019-04-28T19:45:40.759Z,11.80
2019-04-28T19:48:09.834Z,11.80
2019-04-28T19:50:38.891Z,11.80
2019-04-28T19:53:07.963Z,11.80
2019-04-28T19:55:38.724Z,11.80
2019-04-28T19:58:09.513Z,11.80
2019-04-28T20:00:49.227Z,11.80
2019-04-28T20:03:18.292Z,11.70
2019-04-28T20:05:47.344Z,11.80
2019-04-28T20:08:16.427Z,11.80
2019-04-28T20:10:45.631Z,11.80
2019-04-28T20:13:14.706Z,11.80
2019-04-28T20:15:43.775Z,11.80
2019-04-28T20:18:12.847Z,11.80
2019-04-28T20:20:41.881Z,11.80
2019-04-28T20:23:10.950Z,11.80
2019-04-28T20:25:40.007Z,11.80
2019-04-28T20:28:09.059Z,11.80
2019-04-28T20:30:38.123Z,11.80
2019-04-28T20:33:07.860Z,11.80
2019-04-28T20:35:38.765Z,11.70
2019-04-28T20:38:09.457Z,11.70
2019-04-28T20:40:49.169Z,11.60
2019-04-28T20:43:22.835Z,11.60
2019-04-28T20:45:51.925Z,11.60
2019-04-28T20:48:21.040Z,11.60
2019-04-28T20:50:50.088Z,11.60
2019-04-28T20:53:19.470Z,11.60
2019-04-28T20:55:48.673Z,11.50
2019-04-28T20:58:17.735Z,11.50
2019-04-28T21:00:46.938Z,11.50
2019-04-28T21:03:15.996Z,11.50
2019-04-28T21:05:45.066Z,11.50
2019-04-28T21:08:14.128Z,11.40
2019-04-28T21:10:43.188Z,11.40
2019-04-28T21:13:12.310Z,11.40
2019-04-28T21:15:41.362Z,11.40
2019-04-28T21:18:10.412Z,11.30
2019-04-28T21:20:39.490Z,11.40
2019-04-28T21:23:08.548Z,11.30
2019-04-28T21:25:37.612Z,11.30
2019-04-28T21:28:06.714Z,11.30
2019-04-28T21:30:35.766Z,11.20
2019-04-28T21:33:04.828Z,11.20
2019-04-28T21:35:33.882Z,11.20
2019-04-28T21:38:02.934Z,11.10
2019-04-28T21:40:32.042Z,11.00
2019-04-28T21:43:17.788Z,11.00
2019-04-28T21:46:00.716Z,10.90
2019-04-28T21:48:43.385Z,10.90
2019-04-28T21:51:12.487Z,10.80
2019-04-28T21:53:41.572Z,10.80
2019-04-28T21:56:10.620Z,10.80
2019-04-28T21:58:39.677Z,10.70
2019-04-28T22:01:11.420Z,10.60
2019-04-28T22:03:40.462Z,10.70
2019-04-28T22:06:09.607Z,10.60
2019-04-28T22:08:38.825Z,10.60
2019-04-28T22:11:07.886Z,10.60
2019-04-28T22:13:36.934Z,10.60
2019-04-28T22:16:06.003Z,10.60
2019-04-28T22:18:35.055Z,10.50
2019-04-28T22:21:04.102Z,10.50
2019-04-28T22:23:43.884Z,10.50
2019-04-28T22:26:14.586Z,10.40
2019-04-28T22:28:43.616Z,10.40
2019-04-28T22:31:12.686Z,10.40
2019-04-28T22:33:41.741Z,10.30
2019-04-28T22:36:10.813Z,10.30
2019-04-28T22:38:39.899Z,10.30
2019-04-28T22:41:09.023Z,10.30
2019-04-28T22:43:38.067Z,10.20
2019-04-28T22:46:07.141Z,10.20
2019-04-28T22:48:36.263Z,10.20
2019-04-28T22:51:05.315Z,10.20
2019-04-28T22:53:36.009Z,10.20
2019-04-28T22:56:06.775Z,10.10
2019-04-28T22:58:43.325Z,10.10
2019-04-28T23:01:30.303Z,10.10
2019-04-28T23:04:01.161Z,10.10
2019-04-28T23:06:30.204Z,10.00
2019-04-28T23:08:59.273Z,10.00
2019-04-28T23:11:28.516Z,10.00
2019-04-28T23:13:57.580Z,9.90
2019-04-28T23:16:26.630Z,9.90
2019-04-28T23:18:56.264Z,9.90
2019-04-28T23:21:43.277Z,9.90
2019-04-28T23:24:12.350Z,9.90
2019-04-28T23:26:41.396Z,9.90
2019-04-28T23:29:10.460Z,9.90
2019-04-28T23:31:39.502Z,9.80
2019-04-28T23:34:08.571Z,9.90
2019-04-28T23:36:37.647Z,9.90
2019-04-28T23:39:07.832Z,9.80
2019-04-28T23:41:50.573Z,9.80
2019-04-28T23:44:19.632Z,9.80
2019-04-28T23:46:56.537Z,9.70
2019-04-28T23:49:29.525Z,9.70
2019-04-28T23:52:00.276Z,9.70
2019-04-28T23:54:29.336Z,9.70
2019-04-28T23:56:58.375Z,9.70
2019-04-28T23:59:27.441Z,9.70
